GB-0535 weather

Luxter Farm Airstrip
England, United Kingdom

Public forecast

Using degrees Celsius for public forecast. Weather courtesy of forecast.io.

METAR (pilot weather report)

Closest report is RAF Benson, 7.7 nm (14.2 km) W. Retrieved 2019/03/26 05:50 UTC (27 minutes ago):

EGUB 260550Z AUTO 05001KT 9999 // NCD M03/M04 Q1035

TAF (pilot weather forecast)

Forecast is more than 12 hours old.

Closest forecast is RAF Benson, 7.7 nm (14.2 km) W. Retrieved 2011/07/01 18:06 UTC (8 years ago):

TAF EGUB 302352Z 3018/0102 CNL